Time;durP1;ratioP1;P1;durP2;ratioP2;P2;SDS_P1;SDS_P2;PMS_P1;PMS_P2;Temp;Humidity;BMP_temperature;BMP_pressure;BME280_temperature;BME280_humidity;BME280_pressure;Samples;Min_cycle;Max_cycle;Signal;HPM_P1;HPM_P2
2021/12/22 00:01:07;;;;;;;13.33;5.33;;;28.70;99.90;;;;;;4997336;28;20202;-70
2021/12/22 00:03:34;;;;;;;16.40;5.63;;;29.30;99.90;;;;;;4996975;28;20260;-70
2021/12/22 00:06:02;;;;;;;13.57;5.10;;;29.70;99.90;;;;;;4997093;28;20167;-70
2021/12/22 00:08:30;;;;;;;15.43;5.80;;;29.30;99.90;;;;;;4996992;28;20206;-70
2021/12/22 00:10:58;;;;;;;11.00;5.10;;;29.70;99.90;;;;;;4979358;28;20182;-70
2021/12/22 00:13:26;;;;;;;11.17;6.00;;;29.60;99.90;;;;;;4979497;28;20663;-71
2021/12/22 00:15:53;;;;;;;11.80;5.80;;;29.50;99.90;;;;;;4997204;28;20188;-71
2021/12/22 00:18:21;;;;;;;16.93;6.17;;;29.40;99.90;;;;;;4997180;28;20698;-70
2021/12/22 00:20:49;;;;;;;14.30;5.68;;;29.70;99.90;;;;;;4996881;28;20262;-70
2021/12/22 00:23:16;;;;;;;18.27;5.78;;;29.70;99.90;;;;;;4996681;28;20272;-70
2021/12/22 00:25:44;;;;;;;18.80;6.63;;;29.50;99.90;;;;;;4996635;28;20183;-71
2021/12/22 00:28:12;;;;;;;16.33;6.80;;;29.10;99.90;;;;;;4996668;28;20183;-70
2021/12/22 00:30:40;;;;;;;12.77;4.90;;;28.60;99.90;;;;;;4998055;28;20605;-69
2021/12/22 00:33:10;;;;;;;15.67;5.93;;;29.20;99.90;;;;;;4997991;28;20187;-69
2021/12/22 00:35:45;;;;;;;26.33;6.93;;;29.20;99.90;;;;;;5011479;28;20224;-67
2021/12/22 00:38:15;;;;;;;11.37;5.73;;;29.40;99.90;;;;;;5016129;28;20324;-69
2021/12/22 00:40:44;;;;;;;12.67;5.77;;;29.60;99.90;;;;;;5014274;28;20662;-69
2021/12/22 00:43:13;;;;;;;12.13;5.53;;;30.00;99.90;;;;;;5015991;28;20663;-68
2021/12/22 00:45:41;;;;;;;11.32;5.85;;;30.10;99.90;;;;;;5014992;28;20185;-68
2021/12/22 00:48:11;;;;;;;11.77;5.43;;;30.20;99.90;;;;;;5015859;28;20178;-68
2021/12/22 00:50:41;;;;;;;10.90;5.13;;;29.50;99.90;;;;;;5015689;28;20173;-68
2021/12/22 00:53:09;;;;;;;14.17;5.13;;;29.90;99.90;;;;;;5015711;28;20178;-69
2021/12/22 00:55:36;;;;;;;19.70;5.73;;;30.40;99.90;;;;;;5015817;28;20225;-68
2021/12/22 00:58:04;;;;;;;12.10;5.13;;;29.90;99.90;;;;;;5014437;28;20285;-69
2021/12/22 01:00:32;;;;;;;13.40;5.40;;;29.50;99.90;;;;;;5015787;28;20182;-69
2021/12/22 01:03:00;;;;;;;14.43;4.83;;;29.60;99.90;;;;;;5015579;28;20293;-69
2021/12/22 01:05:28;;;;;;;16.43;6.30;;;29.90;99.90;;;;;;5015875;28;20213;-68
2021/12/22 01:07:56;;;;;;;13.50;4.97;;;30.00;99.90;;;;;;5015485;28;20726;-68
2021/12/22 01:10:29;;;;;;;14.18;5.30;;;30.40;99.90;;;;;;5015514;28;20557;-68
2021/12/22 01:13:00;;;;;;;10.95;4.95;;;30.80;99.90;;;;;;5015849;28;20686;-68
2021/12/22 01:15:29;;;;;;;10.30;5.47;;;30.60;99.90;;;;;;4998280;28;20216;-68
2021/12/22 01:18:02;;;;;;;13.75;4.97;;;31.10;99.90;;;;;;5013185;28;20631;-68
2021/12/22 01:23:22;;;;;;;14.60;5.17;;;30.90;99.90;;;;;;4967829;28;20289;-67
2021/12/22 01:25:51;;;;;;;14.03;5.00;;;31.30;99.90;;;;;;4995772;28;20185;-68
2021/12/22 01:28:26;;;;;;;11.73;4.90;;;31.10;99.90;;;;;;4995517;28;20183;-68
2021/12/22 01:31:00;;;;;;;15.77;6.03;;;30.90;99.90;;;;;;4995195;28;20258;-69
2021/12/22 01:33:28;;;;;;;10.93;5.63;;;30.30;99.90;;;;;;4995525;28;20178;-70
2021/12/22 01:35:55;;;;;;;15.07;5.13;;;30.00;99.90;;;;;;5009301;28;20178;-69
2021/12/22 01:38:23;;;;;;;13.70;4.90;;;30.80;99.90;;;;;;5014925;28;20718;-70
2021/12/22 01:40:52;;;;;;;16.47;4.83;;;31.10;99.90;;;;;;5014906;28;20631;-70
2021/12/22 01:43:19;;;;;;;10.23;4.73;;;31.20;99.90;;;;;;5014800;28;20233;-68
2021/12/22 01:46:08;;;;;;;12.93;5.00;;;30.80;99.90;;;;;;5015056;28;20170;-69
2021/12/22 01:51:50;;;;;;;11.73;4.07;;;31.20;99.90;;;;;;4995409;28;20229;-70
2021/12/22 01:54:40;;;;;;;13.50;4.07;;;31.70;99.90;;;;;;4998802;28;20187;-70
2021/12/22 01:57:11;;;;;;;10.45;4.47;;;31.70;99.90;;;;;;4995336;28;20277;-68
2021/12/22 01:59:41;;;;;;;10.52;4.47;;;31.60;99.90;;;;;;5004465;28;20182;-67
2021/12/22 02:02:11;;;;;;;12.33;4.67;;;31.70;99.90;;;;;;5002638;28;20770;-68
2021/12/22 02:04:41;;;;;;;9.43;4.47;;;31.40;99.90;;;;;;5010176;28;20174;-68
2021/12/22 02:07:10;;;;;;;9.23;4.83;;;30.70;99.90;;;;;;5015060;28;20186;-68
2021/12/22 02:12:26;;;;;;;9.65;3.85;;;31.20;99.90;;;;;;5001766;28;20193;-67
2021/12/22 02:14:53;;;;;;;10.63;5.27;;;31.00;99.90;;;;;;5012261;28;20178;-68
2021/12/22 02:17:21;;;;;;;12.53;4.57;;;30.50;99.90;;;;;;5014081;28;20174;-69
2021/12/22 02:19:49;;;;;;;11.20;4.50;;;30.70;99.90;;;;;;4999733;28;20545;-68
2021/12/22 02:22:18;;;;;;;10.97;4.57;;;31.10;99.90;;;;;;4995457;28;20249;-69
2021/12/22 02:24:58;;;;;;;10.60;4.93;;;31.20;99.90;;;;;;4999257;28;20178;-69
2021/12/22 02:27:36;;;;;;;10.13;4.77;;;30.90;99.90;;;;;;4994493;28;20193;-69
2021/12/22 02:30:07;;;;;;;8.80;4.22;;;30.70;99.90;;;;;;4994060;28;20253;-68
2021/12/22 02:35:41;;;;;;;11.87;4.90;;;30.00;99.90;;;;;;5004633;28;20174;-69
2021/12/22 02:38:15;;;;;;;10.07;4.67;;;30.10;99.90;;;;;;5004825;28;20269;-69
2021/12/22 02:40:46;;;;;;;13.07;5.23;;;29.90;99.90;;;;;;5010253;28;20190;-68
2021/12/22 02:43:20;;;;;;;13.40;5.80;;;30.10;99.90;;;;;;4994497;28;20214;-69
2021/12/22 02:45:50;;;;;;;8.45;4.97;;;29.80;99.90;;;;;;4996936;28;20244;-69
2021/12/22 02:48:18;;;;;;;10.80;4.80;;;30.30;99.90;;;;;;4993855;28;20191;-69
2021/12/22 02:50:46;;;;;;;12.10;6.17;;;30.20;99.90;;;;;;4993880;28;20178;-68
2021/12/22 02:53:15;;;;;;;12.40;4.82;;;30.70;99.90;;;;;;4994326;28;20226;-67
2021/12/22 02:55:51;;;;;;;10.40;4.87;;;30.50;99.90;;;;;;4997427;28;20551;-68
2021/12/22 02:58:42;;;;;;;10.13;5.30;;;30.10;99.90;;;;;;5013531;28;20221;-68
2021/12/22 03:04:00;;;;;;;10.77;5.30;;;30.10;99.90;;;;;;4969879;28;20690;-66
2021/12/22 03:06:36;;;;;;;9.10;4.70;;;30.60;99.90;;;;;;5003265;28;20186;-70
2021/12/22 03:09:23;;;;;;;13.47;5.37;;;30.60;99.90;;;;;;4990920;28;20268;-69
2021/12/22 03:11:52;;;;;;;12.03;5.20;;;30.30;99.90;;;;;;4993781;28;20281;-70
2021/12/22 03:14:21;;;;;;;9.93;5.43;;;30.80;99.90;;;;;;4993695;28;20177;-71
2021/12/22 03:16:50;;;;;;;8.83;5.10;;;30.50;99.90;;;;;;4993742;28;20519;-70
2021/12/22 03:19:20;;;;;;;12.57;4.97;;;30.40;99.90;;;;;;4993563;28;20190;-71
2021/12/22 03:21:51;;;;;;;10.10;4.90;;;30.30;99.90;;;;;;4976118;28;20180;-69
2021/12/22 03:24:21;;;;;;;9.50;4.77;;;30.20;99.90;;;;;;4993844;28;20174;-69
2021/12/22 03:26:49;;;;;;;11.07;4.67;;;30.20;99.90;;;;;;4993844;28;20186;-71
2021/12/22 03:29:18;;;;;;;11.70;4.30;;;30.10;99.90;;;;;;4993406;28;20182;-70
2021/12/22 03:31:47;;;;;;;14.50;5.33;;;30.30;99.90;;;;;;4993565;28;20182;-70
2021/12/22 03:34:16;;;;;;;12.93;4.93;;;30.00;99.90;;;;;;4993793;28;20178;-70
2021/12/22 03:36:44;;;;;;;10.30;4.37;;;30.10;99.90;;;;;;4993488;28;20215;-70
2021/12/22 03:39:15;;;;;;;10.30;4.87;;;30.50;99.90;;;;;;4993652;28;20185;-71
2021/12/22 03:41:44;;;;;;;10.43;4.23;;;30.40;99.90;;;;;;4993390;28;20531;-70
2021/12/22 03:44:12;;;;;;;11.97;4.73;;;30.30;99.90;;;;;;4993625;28;20273;-70
2021/12/22 03:46:40;;;;;;;9.27;4.40;;;29.80;99.90;;;;;;4993506;28;20279;-71
2021/12/22 03:49:10;;;;;;;10.37;4.33;;;30.10;99.90;;;;;;4993538;28;20178;-70
2021/12/22 03:51:38;;;;;;;10.37;4.77;;;30.00;99.90;;;;;;4975935;28;20187;-70
2021/12/22 03:54:11;;;;;;;10.70;5.03;;;29.50;99.90;;;;;;4993581;28;20183;-71
2021/12/22 03:56:40;;;;;;;13.97;5.83;;;29.50;99.90;;;;;;4993467;28;20632;-71
2021/12/22 03:59:08;;;;;;;15.07;5.07;;;29.70;99.90;;;;;;4993426;28;20175;-70
2021/12/22 04:01:35;;;;;;;11.43;5.00;;;29.80;99.90;;;;;;4993416;28;20266;-70
2021/12/22 04:04:11;;;;;;;11.27;4.47;;;30.00;99.90;;;;;;4975937;28;20222;-71
2021/12/22 04:06:39;;;;;;;13.30;4.87;;;30.00;99.90;;;;;;4993514;28;20174;-70
2021/12/22 04:09:07;;;;;;;11.67;4.93;;;30.00;99.90;;;;;;4993284;28;20174;-71
2021/12/22 04:11:35;;;;;;;9.10;5.37;;;30.00;99.90;;;;;;4993266;28;20182;-71
2021/12/22 04:14:03;;;;;;;13.67;5.30;;;29.30;99.90;;;;;;4993581;28;20206;-71
2021/12/22 04:16:31;;;;;;;11.53;5.13;;;29.50;99.90;;;;;;4975772;28;20544;-70
2021/12/22 04:18:59;;;;;;;10.50;5.07;;;29.90;99.90;;;;;;4993229;28;20545;-71
2021/12/22 04:21:29;;;;;;;10.93;4.83;;;30.20;99.90;;;;;;4996557;28;20171;-71
2021/12/22 04:23:57;;;;;;;13.90;5.13;;;30.40;99.90;;;;;;4996801;28;20221;-71
2021/12/22 04:26:27;;;;;;;9.10;4.20;;;30.50;99.90;;;;;;5005546;28;20264;-70
2021/12/22 04:28:55;;;;;;;15.65;5.18;;;30.20;99.90;;;;;;4997897;28;20190;-70
2021/12/22 04:31:23;;;;;;;10.80;4.53;;;30.00;99.90;;;;;;5015096;28;20226;-69
2021/12/22 04:33:50;;;;;;;10.77;4.47;;;30.00;99.90;;;;;;5016245;28;20190;-69
2021/12/22 04:36:18;;;;;;;13.30;4.47;;;30.40;99.90;;;;;;5015502;28;20185;-68
2021/12/22 04:38:46;;;;;;;11.63;5.27;;;30.00;99.90;;;;;;5014268;28;20186;-68
2021/12/22 04:41:14;;;;;;;12.97;4.87;;;30.10;99.90;;;;;;5006273;28;20253;-68
2021/12/22 04:43:42;;;;;;;14.53;4.60;;;30.50;99.90;;;;;;5006007;28;20206;-69
2021/12/22 04:46:09;;;;;;;12.43;4.97;;;30.40;99.90;;;;;;5003534;28;20245;-68
2021/12/22 04:48:37;;;;;;;12.43;4.47;;;30.40;99.90;;;;;;5005744;28;20187;-67
2021/12/22 04:51:14;;;;;;;15.83;4.93;;;30.40;99.90;;;;;;5004482;28;20167;-68
2021/12/22 04:56:39;;;;;;;13.53;4.43;;;30.60;99.90;;;;;;4971869;28;20252;-69
2021/12/22 04:59:07;;;;;;;9.13;4.40;;;30.50;99.90;;;;;;4996206;28;20249;-69
2021/12/22 05:01:34;;;;;;;16.70;5.43;;;30.50;99.90;;;;;;4996134;28;20193;-69
2021/12/22 05:04:02;;;;;;;15.57;5.47;;;30.60;99.90;;;;;;5010584;28;20217;-68
2021/12/22 05:06:31;;;;;;;18.03;5.20;;;29.50;99.90;;;;;;5005902;28;20193;-70
2021/12/22 05:08:59;;;;;;;15.00;5.40;;;29.40;99.90;;;;;;5015182;28;20218;-68
2021/12/22 05:11:27;;;;;;;16.77;5.53;;;29.70;99.90;;;;;;5015544;28;20174;-69
2021/12/22 05:13:54;;;;;;;15.82;6.10;;;29.90;99.90;;;;;;5015448;28;20182;-69
2021/12/22 05:16:22;;;;;;;17.17;5.03;;;30.00;99.90;;;;;;5014980;28;20185;-68
2021/12/22 05:21:36;;;;;;;15.00;5.50;;;29.90;99.90;;;;;;5002239;28;20205;-67
2021/12/22 05:24:04;;;;;;;16.60;5.00;;;29.50;99.90;;;;;;5004790;28;20210;-69
2021/12/22 05:26:32;;;;;;;16.77;5.97;;;29.40;99.90;;;;;;5003307;28;20659;-68
2021/12/22 05:28:59;;;;;;;15.70;5.53;;;29.80;99.90;;;;;;4999897;28;20190;-68
2021/12/22 05:31:27;;;;;;;13.83;5.37;;;29.30;99.90;;;;;;5004853;28;20691;-69
2021/12/22 05:33:56;;;;;;;12.83;5.80;;;28.90;99.90;;;;;;5014258;28;20174;-68
2021/12/22 05:36:24;;;;;;;21.63;6.40;;;28.40;99.90;;;;;;5014206;28;20197;-67
2021/12/22 05:38:52;;;;;;;12.97;5.90;;;28.50;99.90;;;;;;5012698;28;20190;-70
2021/12/22 05:41:20;;;;;;;18.57;6.13;;;28.60;99.90;;;;;;5014178;28;20556;-68
2021/12/22 05:43:47;;;;;;;18.40;6.53;;;28.40;99.90;;;;;;5014222;28;20245;-68
2021/12/22 05:46:16;;;;;;;22.07;6.90;;;28.00;99.90;;;;;;5014307;28;20177;-68
2021/12/22 05:48:47;;;;;;;20.57;7.53;;;28.10;99.90;;;;;;5001900;28;20712;-67
2021/12/22 05:51:15;;;;;;;16.87;5.90;;;28.30;99.90;;;;;;4996671;28;20269;-67
2021/12/22 05:53:43;;;;;;;16.33;5.80;;;28.50;99.90;;;;;;4994490;28;20191;-68
2021/12/22 05:56:13;;;;;;;26.70;8.07;;;28.40;99.90;;;;;;4994406;28;20185;-68
2021/12/22 05:58:40;;;;;;;19.03;7.10;;;28.50;99.90;;;;;;5006735;28;20190;-68
2021/12/22 06:01:08;;;;;;;13.73;6.33;;;28.70;99.90;;;;;;5004877;28;20192;-68
2021/12/22 06:03:36;;;;;;;18.90;6.83;;;28.50;99.90;;;;;;5002215;28;20272;-68
2021/12/22 06:06:04;;;;;;;15.90;6.00;;;28.50;99.90;;;;;;5003182;28;20242;-68
2021/12/22 06:08:31;;;;;;;12.47;6.23;;;28.60;99.90;;;;;;5002151;28;20645;-68
2021/12/22 06:10:59;;;;;;;14.47;6.07;;;28.10;99.90;;;;;;5003951;28;20185;-68
2021/12/22 06:13:27;;;;;;;20.03;7.37;;;27.80;99.90;;;;;;5006714;28;20184;-68
2021/12/22 06:15:54;;;;;;;23.50;7.30;;;27.80;99.90;;;;;;5003426;28;20205;-68
2021/12/22 06:18:22;;;;;;;17.73;6.67;;;27.40;99.90;;;;;;5004821;28;20178;-68
2021/12/22 06:20:50;;;;;;;12.20;6.77;;;27.10;99.90;;;;;;5003393;28;20182;-69
2021/12/22 06:23:18;;;;;;;14.93;6.47;;;27.20;99.90;;;;;;5006895;28;20220;-70
2021/12/22 06:25:45;;;;;;;16.30;6.90;;;27.10;99.90;;;;;;5007179;28;20269;-69
2021/12/22 06:28:13;;;;;;;17.50;6.37;;;26.80;99.90;;;;;;4994944;28;20181;-69
2021/12/22 06:30:41;;;;;;;16.63;6.37;;;26.90;99.90;;;;;;4993311;28;20300;-69
2021/12/22 06:33:08;;;;;;;14.40;6.13;;;27.10;99.90;;;;;;4993882;28;20249;-68
2021/12/22 06:35:36;;;;;;;15.50;6.23;;;27.40;99.90;;;;;;4997509;28;20216;-68
2021/12/22 06:38:04;;;;;;;16.03;6.30;;;27.60;99.90;;;;;;5012733;28;20674;-70
2021/12/22 06:40:32;;;;;;;15.27;7.47;;;27.40;99.90;;;;;;5012662;28;20268;-69
2021/12/22 06:42:59;;;;;;;14.67;5.77;;;27.40;99.90;;;;;;5012376;28;20288;-69
2021/12/22 06:45:28;;;;;;;17.73;6.40;;;27.50;99.90;;;;;;5009758;28;20191;-69
2021/12/22 06:47:56;;;;;;;13.80;6.07;;;27.70;99.90;;;;;;4993340;28;20178;-70
2021/12/22 06:50:24;;;;;;;20.57;6.27;;;27.30;99.90;;;;;;4993451;28;20195;-67
2021/12/22 06:52:52;;;;;;;16.20;6.10;;;27.30;99.90;;;;;;4993690;28;20551;-68
2021/12/22 06:55:19;;;;;;;19.27;6.43;;;26.90;99.90;;;;;;5010086;28;20218;-69
2021/12/22 06:57:48;;;;;;;19.53;6.70;;;26.70;99.90;;;;;;4993516;28;20695;-69
2021/12/22 07:00:15;;;;;;;17.47;5.63;;;26.40;99.90;;;;;;4993540;28;20221;-69
2021/12/22 07:02:43;;;;;;;19.83;6.90;;;26.20;99.90;;;;;;4993631;28;20218;-68
2021/12/22 07:05:12;;;;;;;18.80;6.47;;;26.00;99.90;;;;;;4993162;28;20245;-68
2021/12/22 07:07:41;;;;;;;17.77;6.47;;;25.90;99.90;;;;;;4993515;28;20270;-69
2021/12/22 07:10:11;;;;;;;13.80;5.80;;;25.70;99.90;;;;;;4993488;28;20241;-69
2021/12/22 07:12:42;;;;;;;14.30;5.87;;;25.60;99.90;;;;;;4993916;28;20171;-71
2021/12/22 07:15:11;;;;;;;11.33;4.97;;;25.50;99.90;;;;;;5012389;28;20658;-69
2021/12/22 07:17:44;;;;;;;15.30;5.17;;;25.50;99.90;;;;;;5001724;28;20217;-70
2021/12/22 07:20:12;;;;;;;17.17;6.27;;;25.60;99.90;;;;;;5004607;28;20228;-69
2021/12/22 07:22:40;;;;;;;15.77;5.43;;;25.50;99.90;;;;;;5001610;28;20648;-70
2021/12/22 07:25:09;;;;;;;17.33;5.87;;;25.40;99.90;;;;;;5001175;28;20198;-68
2021/12/22 07:27:37;;;;;;;15.60;5.70;;;25.60;99.90;;;;;;5013219;28;20212;-72
2021/12/22 07:30:06;;;;;;;12.27;5.00;;;25.60;99.90;;;;;;4994844;28;20242;-70
2021/12/22 07:32:34;;;;;;;15.47;5.23;;;25.50;99.90;;;;;;4993611;28;20193;-69
2021/12/22 07:35:18;;;;;;;16.70;4.27;;;25.40;99.90;;;;;;4993363;28;20189;-69
2021/12/22 07:38:17;;;;;;;10.67;4.90;;;25.20;99.90;;;;;;4993998;28;20190;-68
2021/12/22 07:40:45;;;;;;;16.57;4.87;;;25.20;99.90;;;;;;4986360;28;20198;-70
2021/12/22 07:43:13;;;;;;;11.97;4.93;;;25.10;99.90;;;;;;5012909;28;20671;-70
2021/12/22 07:45:41;;;;;;;19.00;4.47;;;25.10;99.90;;;;;;5005472;28;20283;-70
2021/12/22 07:48:09;;;;;;;21.87;5.13;;;24.90;99.90;;;;;;4997925;28;20190;-69
2021/12/22 07:50:37;;;;;;;14.33;4.70;;;24.80;99.90;;;;;;5011338;28;20182;-68
2021/12/22 07:53:05;;;;;;;11.37;4.60;;;24.80;99.90;;;;;;5012341;28;20177;-70
2021/12/22 07:55:33;;;;;;;10.23;4.17;;;24.90;99.90;;;;;;5015434;28;20640;-70
2021/12/22 07:58:01;;;;;;;11.43;3.87;;;24.80;99.90;;;;;;5015938;28;20198;-71
2021/12/22 08:00:29;;;;;;;14.57;4.67;;;24.70;99.90;;;;;;4998308;28;20189;-69
2021/12/22 08:02:57;;;;;;;14.33;4.70;;;24.80;99.90;;;;;;4996200;28;20211;-70
2021/12/22 08:05:25;;;;;;;15.90;3.70;;;24.70;99.90;;;;;;5015164;28;20208;-69
2021/12/22 08:07:53;;;;;;;10.87;3.87;;;24.70;99.90;;;;;;5012752;28;20666;-69
2021/12/22 08:10:21;;;;;;;9.13;3.57;;;24.60;99.90;;;;;;5014883;28;20268;-69
2021/12/22 08:12:49;;;;;;;17.60;4.07;;;24.60;99.90;;;;;;5015639;28;20261;-69
2021/12/22 08:15:16;;;;;;;11.97;4.00;;;24.60;99.90;;;;;;5015706;28;20170;-69
2021/12/22 08:17:44;;;;;;;12.27;3.87;;;24.60;99.90;;;;;;5011375;28;20186;-70
2021/12/22 08:20:13;;;;;;;13.43;4.40;;;24.60;99.90;;;;;;5008856;28;20241;-70
2021/12/22 08:22:40;;;;;;;13.17;3.80;;;24.70;99.90;;;;;;4995852;28;20207;-70
2021/12/22 08:25:09;;;;;;;13.00;3.90;;;24.70;99.90;;;;;;4995881;28;20179;-70
2021/12/22 08:27:37;;;;;;;8.47;3.47;;;24.60;99.90;;;;;;4995821;28;20178;-69
2021/12/22 08:30:06;;;;;;;9.60;3.40;;;24.50;99.90;;;;;;4995376;28;20281;-71
2021/12/22 08:32:34;;;;;;;9.77;3.20;;;24.50;99.90;;;;;;4995874;28;20538;-71
2021/12/22 08:35:04;;;;;;;15.07;4.00;;;24.40;99.90;;;;;;4995764;28;20652;-72
2021/12/22 08:40:18;;;;;;;15.00;4.00;;;24.40;99.90;;;;;;5015194;28;20196;-71
2021/12/22 08:42:46;;;;;;;11.77;3.50;;;24.40;99.90;;;;;;5015965;28;20213;-71
2021/12/22 08:45:15;;;;;;;12.97;4.27;;;24.30;99.90;;;;;;5006270;28;20186;-72
2021/12/22 08:47:43;;;;;;;13.20;3.80;;;24.30;99.90;;;;;;4996431;28;20181;-72
2021/12/22 08:50:12;;;;;;;14.00;3.63;;;24.20;99.90;;;;;;5013703;28;20192;-71
2021/12/22 08:52:40;;;;;;;10.13;3.27;;;24.20;99.90;;;;;;5015806;28;20182;-70
2021/12/22 08:55:08;;;;;;;12.63;3.90;;;24.30;99.90;;;;;;5016103;28;20174;-72
2021/12/22 08:57:36;;;;;;;16.77;4.47;;;24.40;99.90;;;;;;5015476;28;20192;-70
2021/12/22 09:00:09;;;;;;;12.30;3.90;;;24.10;99.90;;;;;;5009817;28;20247;-70
2021/12/22 09:02:38;;;;;;;12.73;3.53;;;24.20;99.90;;;;;;5013894;28;20573;-71
2021/12/22 09:05:06;;;;;;;18.57;4.47;;;24.20;99.90;;;;;;5014739;28;20674;-70
2021/12/22 09:07:34;;;;;;;15.60;3.90;;;24.30;99.90;;;;;;4999319;28;20193;-71
2021/12/22 09:10:03;;;;;;;12.27;3.47;;;24.30;99.90;;;;;;5007904;28;20618;-70
2021/12/22 09:12:31;;;;;;;11.50;3.80;;;24.30;99.90;;;;;;5013422;28;20655;-72
2021/12/22 09:14:59;;;;;;;7.27;3.70;;;24.20;99.90;;;;;;4996295;28;20178;-70
2021/12/22 09:17:27;;;;;;;14.27;3.63;;;24.20;99.90;;;;;;4995864;28;20550;-70
2021/12/22 09:19:55;;;;;;;12.37;3.57;;;24.10;99.90;;;;;;4996944;28;20187;-70
2021/12/22 09:22:23;;;;;;;9.60;3.57;;;24.00;99.90;;;;;;5008117;28;20200;-71
2021/12/22 09:24:51;;;;;;;9.63;3.33;;;24.00;99.90;;;;;;5015400;28;20189;-71
2021/12/22 09:27:19;;;;;;;13.83;3.20;;;24.00;99.90;;;;;;5015445;28;20208;-70
2021/12/22 09:29:47;;;;;;;11.10;3.63;;;23.90;99.90;;;;;;5001927;28;20269;-71
2021/12/22 09:32:17;;;;;;;13.67;3.83;;;24.00;99.90;;;;;;4996691;28;20317;-70
2021/12/22 09:34:46;;;;;;;16.37;4.27;;;24.00;99.90;;;;;;5006405;28;20186;-71
2021/12/22 09:37:14;;;;;;;9.73;3.07;;;23.90;99.90;;;;;;4995517;28;20652;-71
2021/12/22 09:39:41;;;;;;;12.70;3.93;;;23.90;99.90;;;;;;4996183;28;20179;-70
2021/12/22 09:42:10;;;;;;;10.47;3.27;;;23.90;99.90;;;;;;5014579;28;20186;-72
2021/12/22 09:44:44;;;;;;;7.77;3.10;;;23.90;99.90;;;;;;5010093;28;20189;-72
2021/12/22 09:47:14;;;;;;;12.50;3.90;;;23.80;99.90;;;;;;5007581;28;20182;-71
2021/12/22 09:52:20;;;;;;;11.23;3.37;;;23.80;99.90;;;;;;5014304;28;20182;-70
2021/12/22 09:54:53;;;;;;;10.67;3.43;;;23.80;99.90;;;;;;5015121;28;20305;-72
2021/12/22 09:57:22;;;;;;;11.80;3.77;;;23.70;99.90;;;;;;5001350;28;20266;-70
2021/12/22 09:59:52;;;;;;;10.10;3.20;;;23.70;99.90;;;;;;5000604;28;20275;-71
2021/12/22 10:02:22;;;;;;;11.57;3.50;;;23.70;99.90;;;;;;5014898;28;20212;-71
2021/12/22 10:04:50;;;;;;;11.50;3.40;;;23.80;99.90;;;;;;5029833;28;20200;-69
2021/12/22 10:07:26;;;;;;;16.47;4.27;;;23.80;99.90;;;;;;5013066;28;20644;-71
2021/12/22 10:09:56;;;;;;;16.00;3.67;;;23.80;99.90;;;;;;5014587;28;20182;-70
2021/12/22 10:12:26;;;;;;;14.27;4.07;;;23.80;99.90;;;;;;5013722;28;20197;-69
2021/12/22 10:15:00;;;;;;;13.77;3.43;;;23.70;99.90;;;;;;4997089;28;20263;-71
2021/12/22 10:17:37;;;;;;;12.10;3.13;;;23.80;99.90;;;;;;5002502;28;20191;-72
2021/12/22 10:20:09;;;;;;;15.27;3.57;;;23.70;99.90;;;;;;4994813;28;20667;-71
2021/12/22 10:22:43;;;;;;;9.83;2.83;;;23.70;99.90;;;;;;4994843;28;20214;-71
2021/12/22 10:25:24;;;;;;;9.53;2.87;;;23.70;99.90;;;;;;4998668;28;20185;-70
2021/12/22 10:28:16;;;;;;;13.17;3.17;;;23.70;99.90;;;;;;5006857;28;20654;-71
2021/12/22 10:30:45;;;;;;;11.87;3.17;;;23.80;99.90;;;;;;5004055;28;20684;-71
2021/12/22 10:33:19;;;;;;;14.73;3.00;;;23.70;99.90;;;;;;5002786;28;20182;-71
2021/12/22 10:35:51;;;;;;;15.90;4.07;;;23.70;99.90;;;;;;5002681;28;20675;-71
2021/12/22 10:38:25;;;;;;;14.93;3.63;;;23.70;99.90;;;;;;5012589;28;20189;-69
2021/12/22 10:41:00;;;;;;;12.67;3.20;;;23.80;99.90;;;;;;5004991;28;20532;-72
2021/12/22 10:43:31;;;;;;;13.73;3.20;;;23.80;99.90;;;;;;4997398;28;20611;-71
2021/12/22 10:46:02;;;;;;;11.40;3.13;;;23.60;99.90;;;;;;5005095;28;20674;-70
2021/12/22 10:51:40;;;;;;;12.97;2.80;;;23.70;99.90;;;;;;4994222;28;20542;-71
2021/12/22 10:54:11;;;;;;;13.20;2.93;;;23.70;99.90;;;;;;4994222;28;20722;-71
2021/12/22 10:56:48;;;;;;;11.50;4.07;;;23.70;99.90;;;;;;5006237;28;20269;-71
2021/12/22 10:59:19;;;;;;;9.70;3.27;;;23.60;99.90;;;;;;4976756;28;20568;-71
2021/12/22 11:02:10;;;;;;;10.17;3.53;;;23.60;99.90;;;;;;4997561;28;20192;-72
2021/12/22 11:04:44;;;;;;;12.57;3.30;;;23.70;99.90;;;;;;5014164;28;20189;-72
2021/12/22 11:07:23;;;;;;;15.43;3.33;;;23.60;99.90;;;;;;5005726;28;20186;-70
2021/12/22 11:09:52;;;;;;;12.40;2.63;;;23.60;99.90;;;;;;4993961;28;20178;-70
2021/12/22 11:12:36;;;;;;;10.90;3.37;;;23.60;99.90;;;;;;4994022;28;20568;-70
2021/12/22 11:15:05;;;;;;;16.80;3.07;;;23.60;99.90;;;;;;5000502;28;20189;-70
2021/12/22 11:17:39;;;;;;;13.73;3.13;;;23.60;99.90;;;;;;4985647;28;20205;-70
2021/12/22 11:20:07;;;;;;;9.97;2.67;;;23.50;99.90;;;;;;5003774;28;20665;-70
2021/12/22 11:23:04;;;;;;;18.60;2.87;;;23.50;99.90;;;;;;4996338;28;20206;-69
2021/12/22 11:25:32;;;;;;;9.53;3.00;;;23.50;99.90;;;;;;4999777;28;20212;-71
2021/12/22 11:28:00;;;;;;;19.23;3.73;;;23.50;99.90;;;;;;5013828;28;20216;-70
2021/12/22 11:30:29;;;;;;;14.37;3.53;;;23.50;99.90;;;;;;5009469;28;20317;-71
2021/12/22 11:32:58;;;;;;;12.63;3.10;;;23.60;99.90;;;;;;5019360;28;20178;-71
2021/12/22 11:35:27;;;;;;;10.17;2.97;;;23.60;99.90;;;;;;5014675;28;20223;-72
2021/12/22 11:37:58;;;;;;;12.70;2.90;;;23.60;99.90;;;;;;5000286;28;20213;-71
2021/12/22 11:40:26;;;;;;;9.47;2.93;;;23.60;99.90;;;;;;4984319;28;20567;-71
2021/12/22 11:42:54;;;;;;;14.80;3.10;;;23.50;99.90;;;;;;5019783;28;20205;-70
2021/12/22 11:45:23;;;;;;;8.80;2.83;;;23.50;99.90;;;;;;5010831;28;20261;-71
2021/12/22 11:47:56;;;;;;;9.17;2.97;;;23.60;99.90;;;;;;5006765;28;20196;-71
2021/12/22 11:50:35;;;;;;;17.93;3.83;;;23.60;99.90;;;;;;5019553;28;20188;-70
2021/12/22 11:53:08;;;;;;;9.10;3.27;;;23.60;99.90;;;;;;5000502;28;20209;-71
2021/12/22 11:55:51;;;;;;;14.30;3.20;;;23.60;99.90;;;;;;5000481;28;20185;-72
2021/12/22 11:58:22;;;;;;;8.90;3.00;;;23.60;99.90;;;;;;5009742;28;20195;-71
2021/12/22 12:00:56;;;;;;;10.00;2.77;;;23.60;99.90;;;;;;5019676;28;20174;-72
2021/12/22 12:03:46;;;;;;;14.00;3.80;;;23.60;99.90;;;;;;5002137;28;20213;-71
2021/12/22 12:06:21;;;;;;;13.13;3.33;;;23.60;99.90;;;;;;5004406;28;20196;-71
2021/12/22 12:08:58;;;;;;;9.87;2.80;;;23.60;99.90;;;;;;4999988;28;20185;-71
2021/12/22 12:11:43;;;;;;;11.97;3.17;;;23.60;99.90;;;;;;4999875;28;20182;-71
2021/12/22 12:23:30;;;;;;;14.03;3.77;;;23.40;99.90;;;;;;5019477;28;20260;-71
2021/12/22 12:26:05;;;;;;;17.67;3.20;;;23.40;99.90;;;;;;5005412;28;20193;-71
2021/12/22 12:28:49;;;;;;;11.77;3.60;;;23.40;99.90;;;;;;5017806;28;20295;-70
2021/12/22 12:31:40;;;;;;;11.67;3.20;;;23.20;99.90;;;;;;4999594;28;20237;-71
2021/12/22 12:34:25;;;;;;;11.80;3.13;;;23.10;99.90;;;;;;5001262;28;20269;-71
2021/12/22 12:36:52;;;;;;;18.37;3.93;;;23.00;99.90;;;;;;5018469;28;20189;-71
2021/12/22 12:39:54;;;;;;;15.00;3.60;;;23.00;99.90;;;;;;5019526;28;20181;-71
2021/12/22 12:42:22;;;;;;;14.30;3.87;;;23.00;99.90;;;;;;5015419;28;20204;-71
2021/12/22 12:44:50;;;;;;;17.90;3.43;;;23.00;99.90;;;;;;5008918;28;20261;-71
2021/12/22 12:47:20;;;;;;;10.60;3.30;;;22.90;99.90;;;;;;4996636;28;20174;-70
2021/12/22 12:49:48;;;;;;;12.37;3.40;;;22.90;99.90;;;;;;4996335;28;20217;-71
2021/12/22 12:52:24;;;;;;;13.70;3.83;;;22.90;99.90;;;;;;4997950;28;20585;-71
2021/12/22 12:54:55;;;;;;;19.67;3.70;;;23.00;99.90;;;;;;5011322;28;20193;-71
2021/12/22 12:57:25;;;;;;;12.97;3.93;;;23.00;99.90;;;;;;4996858;28;20598;-70
2021/12/22 13:00:01;;;;;;;15.87;3.60;;;22.90;99.90;;;;;;4996533;28;20185;-70
2021/12/22 13:02:31;;;;;;;12.83;3.67;;;22.90;99.90;;;;;;5012084;28;20212;-71
2021/12/22 13:05:19;;;;;;;18.90;4.67;;;22.80;99.90;;;;;;5010406;28;20191;-71
2021/12/22 13:07:47;;;;;;;16.87;3.50;;;22.80;99.90;;;;;;4996453;28;20209;-70
2021/12/22 13:10:23;;;;;;;15.77;3.23;;;22.90;99.90;;;;;;5015667;28;20244;-70
2021/12/22 13:13:13;;;;;;;15.53;3.87;;;22.90;99.90;;;;;;5015802;28;20169;-70
2021/12/22 13:15:49;;;;;;;14.60;3.57;;;23.00;99.90;;;;;;5004844;28;20181;-71
2021/12/22 13:18:21;;;;;;;13.30;3.30;;;22.90;99.90;;;;;;4996181;28;20185;-70
2021/12/22 13:20:49;;;;;;;19.07;4.00;;;22.90;99.90;;;;;;5003185;28;20647;-70
2021/12/22 13:23:24;;;;;;;11.73;3.40;;;22.90;99.90;;;;;;5015613;28;20300;-70
2021/12/22 13:25:53;;;;;;;15.30;4.20;;;22.90;99.90;;;;;;4999175;28;20193;-71
2021/12/22 13:28:30;;;;;;;12.33;3.30;;;22.90;99.90;;;;;;4995844;28;20233;-71
2021/12/22 13:31:01;;;;;;;13.37;3.10;;;22.90;99.90;;;;;;4995506;28;20664;-71
2021/12/22 13:33:34;;;;;;;13.83;3.47;;;22.90;99.90;;;;;;4995934;28;20185;-71